createdAt,value
2019-05-17T00:00:01.963Z,7.00
2019-05-17T00:02:37.431Z,7.73
2019-05-17T00:30:26.576Z,7.20
2019-05-17T00:32:57.074Z,8.13
2019-05-17T00:35:46.885Z,8.57
2019-05-17T00:38:47.540Z,7.93
2019-05-17T00:41:08.985Z,8.87
2019-05-17T00:43:39.381Z,8.60
2019-05-17T00:46:29.101Z,8.63
2019-05-17T00:48:59.453Z,8.70
2019-05-17T00:51:49.028Z,8.80
2019-05-17T00:54:38.406Z,9.70
2019-05-17T00:57:09.236Z,9.23
2019-05-17T00:59:39.991Z,9.60
2019-05-17T01:02:29.956Z,9.73
2019-05-17T01:05:00.776Z,9.83
2019-05-17T01:10:47.488Z,9.80
2019-05-17T01:13:40.110Z,9.10
2019-05-17T01:16:29.160Z,8.83
2019-05-17T01:19:01.119Z,9.37
2019-05-17T01:21:56.750Z,11.27
2019-05-17T01:24:28.941Z,11.83
2019-05-17T01:27:19.413Z,10.70
2019-05-17T01:30:10.555Z,10.03
2019-05-17T01:33:02.679Z,9.87
2019-05-17T01:35:46.646Z,10.83
2019-05-17T01:38:17.855Z,10.83
2019-05-17T01:40:59.279Z,12.20
2019-05-17T01:43:39.385Z,12.23
2019-05-17T01:46:13.434Z,11.50
2019-05-17T01:49:02.828Z,13.23
2019-05-17T01:51:33.590Z,13.33
2019-05-17T01:54:06.683Z,13.63
2019-05-17T01:56:56.643Z,14.27
2019-05-17T01:59:28.495Z,16.40
2019-05-17T02:02:23.113Z,16.20
2019-05-17T02:05:14.019Z,15.93
2019-05-17T02:08:03.553Z,15.07
2019-05-17T02:11:18.436Z,15.97
2019-05-17T02:14:08.321Z,14.37
2019-05-17T02:16:38.955Z,16.53
2019-05-17T02:19:31.151Z,16.10
2019-05-17T02:22:20.400Z,14.30
2019-05-17T02:28:01.541Z,12.70
2019-05-17T02:30:55.340Z,13.27
2019-05-17T02:33:44.626Z,13.63
2019-05-17T02:36:14.886Z,12.70
2019-05-17T02:38:47.519Z,12.93
2019-05-17T02:41:36.777Z,12.67
2019-05-17T02:44:07.426Z,11.97
2019-05-17T02:46:43.073Z,13.83
2019-05-17T02:49:33.135Z,13.87
2019-05-17T02:52:13.455Z,13.53
2019-05-17T02:55:04.020Z,14.77
2019-05-17T02:57:57.212Z,14.47
2019-05-17T03:00:47.454Z,15.37
2019-05-17T03:03:18.473Z,15.70
2019-05-17T03:06:07.981Z,15.27
2019-05-17T03:08:57.768Z,15.93
2019-05-17T03:11:47.367Z,16.97
2019-05-17T03:14:36.688Z,17.37
2019-05-17T03:17:07.144Z,15.20
2019-05-17T03:19:43.550Z,15.47
2019-05-17T03:22:33.137Z,16.30
2019-05-17T03:25:23.941Z,14.73
2019-05-17T03:28:06.675Z,14.70
2019-05-17T03:30:57.163Z,14.33
2019-05-17T03:33:35.183Z,14.50
2019-05-17T03:36:26.059Z,13.83
2019-05-17T03:39:06.586Z,12.67
2019-05-17T03:41:48.379Z,14.87
2019-05-17T03:44:32.996Z,15.57
2019-05-17T03:47:02.499Z,15.73
2019-05-17T03:49:53.238Z,15.17
2019-05-17T03:52:45.893Z,14.27
2019-05-17T03:55:37.523Z,15.00
2019-05-17T04:01:36.490Z,15.63
2019-05-17T04:04:28.729Z,15.23
2019-05-17T04:07:19.446Z,15.80
2019-05-17T04:13:19.690Z,17.53
2019-05-17T04:16:09.780Z,17.57
2019-05-17T04:18:43.767Z,17.43
2019-05-17T04:21:13.254Z,17.30
2019-05-17T04:24:03.357Z,17.40
2019-05-17T04:26:54.211Z,18.20
2019-05-17T04:29:44.091Z,18.13
2019-05-17T04:32:14.385Z,17.97
2019-05-17T04:35:04.009Z,19.47
2019-05-17T04:37:38.195Z,19.43
2019-05-17T04:40:06.580Z,20.30
2019-05-17T04:42:55.849Z,22.77
2019-05-17T04:45:45.215Z,20.93
2019-05-17T04:48:36.075Z,21.87
2019-05-17T04:57:23.281Z,20.27
2019-05-17T04:59:53.748Z,21.43
2019-05-17T05:02:47.112Z,20.50
2019-05-17T05:05:17.956Z,22.53
2019-05-17T05:07:49.138Z,21.57
2019-05-17T05:10:22.511Z,23.03
2019-05-17T05:12:54.783Z,22.03
2019-05-17T05:15:44.866Z,21.77
2019-05-17T05:18:54.216Z,21.73
2019-05-17T05:21:24.644Z,21.67
2019-05-17T05:23:58.582Z,24.87
2019-05-17T05:26:47.963Z,24.63
2019-05-17T05:29:23.315Z,23.80
2019-05-17T05:32:12.335Z,25.70
2019-05-17T05:34:46.382Z,24.80
2019-05-17T05:37:16.767Z,25.60
2019-05-17T05:42:38.267Z,22.57
2019-05-17T05:45:49.801Z,25.30
2019-05-17T05:48:21.750Z,22.80
2019-05-17T05:50:54.475Z,23.23
2019-05-17T05:53:43.740Z,23.10
2019-05-17T05:56:27.820Z,22.87
2019-05-17T05:59:11.887Z,22.93
2019-05-17T06:01:42.106Z,22.83
2019-05-17T06:04:14.219Z,23.07
2019-05-17T06:06:45.994Z,21.97
2019-05-17T06:09:35.344Z,20.33
2019-05-17T06:12:05.938Z,20.10
2019-05-17T06:14:36.263Z,19.80
2019-05-17T06:17:27.219Z,18.40
2019-05-17T06:19:57.577Z,17.37
2019-05-17T06:22:28.521Z,17.63
2019-05-17T06:25:36.693Z,16.23
2019-05-17T06:28:26.109Z,15.17
2019-05-17T06:31:16.844Z,15.00
2019-05-17T06:34:06.198Z,14.33
2019-05-17T06:36:36.521Z,14.40
2019-05-17T06:39:17.250Z,15.20
2019-05-17T06:42:37.049Z,14.03
2019-05-17T06:44:56.778Z,12.73
2019-05-17T06:47:27.386Z,15.17
2019-05-17T06:50:16.780Z,14.27
2019-05-17T06:52:47.078Z,13.50
2019-05-17T06:55:18.670Z,12.83
2019-05-17T06:57:48.943Z,13.33
2019-05-17T07:00:40.456Z,13.40
2019-05-17T07:03:31.943Z,12.87
2019-05-17T07:06:04.354Z,12.23
2019-05-17T07:08:53.644Z,11.43
2019-05-17T07:11:25.963Z,12.30
2019-05-17T07:14:03.177Z,12.73
2019-05-17T07:16:52.459Z,12.33
2019-05-17T07:19:41.837Z,11.53
2019-05-17T07:22:12.129Z,11.10
2019-05-17T07:25:01.485Z,11.20
2019-05-17T07:27:41.601Z,12.43
2019-05-17T07:33:14.011Z,11.17
2019-05-17T07:35:44.651Z,10.90
2019-05-17T07:38:15.180Z,11.97
2019-05-17T07:40:50.158Z,11.63
2019-05-17T07:43:20.786Z,10.83
2019-05-17T07:45:51.174Z,10.17
2019-05-17T07:48:25.032Z,10.57
2019-05-17T07:50:54.935Z,10.47
2019-05-17T07:53:25.216Z,10.83
2019-05-17T07:55:55.800Z,10.73
2019-05-17T07:58:26.285Z,10.20
2019-05-17T08:01:15.829Z,10.07
2019-05-17T08:03:50.154Z,10.37
2019-05-17T08:06:21.314Z,9.77
2019-05-17T08:09:16.987Z,8.93
2019-05-17T08:11:47.240Z,9.10
2019-05-17T08:14:29.389Z,9.17
2019-05-17T08:16:50.176Z,8.77
2019-05-17T08:19:40.337Z,9.60
2019-05-17T08:22:34.639Z,9.63
2019-05-17T08:25:23.315Z,9.07
2019-05-17T08:28:12.562Z,10.00
2019-05-17T08:30:42.937Z,8.23
2019-05-17T08:33:13.494Z,8.60
2019-05-17T08:39:11.408Z,8.50
2019-05-17T08:41:52.886Z,8.07
2019-05-17T08:44:23.141Z,7.33
2019-05-17T08:47:14.798Z,8.10
2019-05-17T08:50:07.960Z,7.97
2019-05-17T08:52:45.932Z,8.20
2019-05-17T08:55:16.456Z,7.90
2019-05-17T08:57:56.437Z,6.83
2019-05-17T09:00:26.776Z,7.13
2019-05-17T09:03:16.322Z,6.43
2019-05-17T09:05:46.764Z,6.87
2019-05-17T09:08:36.064Z,7.87
2019-05-17T09:11:19.705Z,6.47
2019-05-17T09:14:11.835Z,6.53
2019-05-17T09:16:56.913Z,6.13
2019-05-17T09:19:27.217Z,6.07
2019-05-17T09:22:16.539Z,5.90
2019-05-17T09:25:06.211Z,6.47
2019-05-17T09:27:39.845Z,6.63
2019-05-17T09:30:31.389Z,6.93
2019-05-17T09:33:01.833Z,6.77
2019-05-17T09:35:36.405Z,7.30
2019-05-17T09:38:25.752Z,6.37
2019-05-17T09:41:19.874Z,5.93
2019-05-17T09:44:15.582Z,6.40
2019-05-17T09:47:20.645Z,6.53
2019-05-17T09:49:51.095Z,6.03
2019-05-17T09:52:41.728Z,5.90
2019-05-17T09:55:16.365Z,5.80
2019-05-17T09:57:46.811Z,6.17
2019-05-17T10:00:20.787Z,5.57
2019-05-17T10:03:44.222Z,5.77
2019-05-17T10:06:12.920Z,5.43
2019-05-17T10:09:02.172Z,6.40
2019-05-17T10:11:32.591Z,6.40
2019-05-17T10:14:02.889Z,7.10
2019-05-17T10:16:33.514Z,6.40
2019-05-17T10:19:03.858Z,6.27
2019-05-17T10:21:35.399Z,7.53
2019-05-17T10:24:06.048Z,6.53
2019-05-17T10:29:50.118Z,5.47
2019-05-17T10:32:20.797Z,6.03
2019-05-17T10:34:55.162Z,5.50
2019-05-17T10:40:17.778Z,5.43
2019-05-17T10:42:51.283Z,6.13
2019-05-17T10:45:40.706Z,6.37
2019-05-17T10:48:30.254Z,7.20
2019-05-17T10:51:20.795Z,6.33
2019-05-17T11:00:10.141Z,5.87
2019-05-17T11:02:46.413Z,5.63
2019-05-17T11:05:20.118Z,6.10
2019-05-17T11:07:52.897Z,5.70
2019-05-17T11:10:42.195Z,5.20
2019-05-17T11:13:14.255Z,4.67
2019-05-17T11:16:27.076Z,4.47
2019-05-17T11:19:16.361Z,4.27
2019-05-17T11:22:06.245Z,5.13
2019-05-17T11:24:56.842Z,5.50
2019-05-17T11:27:27.177Z,5.73
2019-05-17T11:30:16.645Z,4.80
2019-05-17T11:33:26.623Z,5.37
2019-05-17T11:36:04.007Z,6.07
2019-05-17T11:38:54.712Z,5.10
2019-05-17T11:41:36.481Z,4.83
2019-05-17T11:44:20.055Z,4.63
2019-05-17T11:47:01.363Z,4.23
2019-05-17T11:49:35.036Z,3.80
2019-05-17T11:52:05.389Z,4.37
2019-05-17T11:54:39.030Z,4.70
2019-05-17T11:57:15.553Z,4.27
2019-05-17T11:59:46.185Z,5.03
2019-05-17T12:02:58.512Z,3.93
2019-05-17T12:08:56.161Z,4.70
2019-05-17T12:11:45.700Z,3.67
2019-05-17T12:14:36.107Z,3.80
2019-05-17T12:17:26.008Z,3.03
2019-05-17T12:20:25.740Z,3.30
2019-05-17T12:25:56.069Z,2.77
2019-05-17T12:28:37.514Z,3.17
2019-05-17T12:31:08.671Z,3.20
2019-05-17T12:33:58.079Z,3.00
2019-05-17T12:36:50.294Z,3.90
2019-05-17T12:39:20.795Z,3.87
2019-05-17T12:42:10.305Z,3.73
2019-05-17T12:44:40.916Z,3.33
2019-05-17T12:47:31.606Z,3.13
2019-05-17T12:50:39.938Z,2.30
2019-05-17T12:53:29.236Z,3.43
2019-05-17T12:56:01.874Z,3.03
2019-05-17T12:58:51.222Z,2.87
2019-05-17T13:01:40.791Z,3.43
2019-05-17T13:16:21.925Z,3.30
2019-05-17T13:18:55.917Z,2.80
2019-05-17T13:21:52.354Z,3.17
2019-05-17T13:27:24.998Z,3.13
2019-05-17T13:29:55.425Z,2.00
2019-05-17T13:32:28.620Z,2.30
2019-05-17T13:35:41.625Z,3.33
2019-05-17T13:38:32.211Z,2.50
2019-05-17T13:41:21.792Z,3.30
2019-05-17T13:44:31.495Z,3.00
2019-05-17T13:50:16.695Z,3.07
2019-05-17T13:53:28.618Z,3.73
2019-05-17T13:59:05.787Z,2.60
2019-05-17T14:01:36.139Z,2.80
2019-05-17T14:07:56.778Z,2.73
2019-05-17T14:10:48.257Z,2.83
2019-05-17T14:13:21.925Z,2.70
2019-05-17T14:16:13.483Z,2.80
2019-05-17T14:21:33.141Z,2.87
2019-05-17T14:24:03.716Z,2.47
2019-05-17T14:26:53.039Z,4.20
2019-05-17T14:29:42.648Z,3.90
2019-05-17T14:32:53.804Z,2.70
2019-05-17T14:35:24.496Z,2.40
2019-05-17T14:37:55.144Z,3.03
2019-05-17T14:41:00.348Z,2.90
2019-05-17T14:45:56.083Z,1.70
2019-05-17T14:48:31.248Z,1.80
2019-05-17T14:51:20.557Z,1.40
2019-05-17T14:54:06.703Z,1.00
2019-05-17T14:56:45.823Z,1.00
2019-05-17T14:59:28.679Z,1.20
2019-05-17T15:01:59.338Z,1.30
2019-05-17T15:04:51.242Z,1.30
2019-05-17T15:07:24.452Z,1.17
2019-05-17T15:09:56.277Z,1.17
2019-05-17T15:12:47.614Z,1.03
2019-05-17T15:19:05.523Z,1.40
2019-05-17T15:21:55.099Z,2.10
2019-05-17T15:24:44.374Z,1.90
2019-05-17T15:27:14.725Z,1.50
2019-05-17T15:29:46.378Z,1.70
2019-05-17T15:32:35.856Z,2.10
2019-05-17T15:35:27.175Z,1.60
2019-05-17T15:38:19.316Z,2.00
2019-05-17T15:40:49.595Z,2.20
2019-05-17T15:43:32.155Z,1.53
2019-05-17T15:46:15.929Z,1.60
2019-05-17T15:48:57.275Z,1.63
2019-05-17T15:51:27.920Z,1.53
2019-05-17T15:54:20.135Z,1.60
2019-05-17T15:56:50.599Z,1.90
2019-05-17T15:59:22.231Z,1.70
2019-05-17T16:04:44.966Z,1.80
2019-05-17T16:07:16.619Z,1.47
2019-05-17T16:10:28.737Z,1.63
2019-05-17T16:13:20.193Z,1.50
2019-05-17T16:15:50.471Z,1.60
2019-05-17T16:18:20.953Z,1.40
2019-05-17T16:20:52.151Z,1.87
2019-05-17T16:23:46.041Z,1.57
2019-05-17T16:26:16.393Z,1.43
2019-05-17T16:28:46.817Z,1.20
2019-05-17T16:31:36.192Z,1.40
2019-05-17T16:34:26.766Z,1.30
2019-05-17T16:37:00.161Z,1.30
2019-05-17T16:39:31.830Z,1.30
2019-05-17T16:42:02.261Z,1.40
2019-05-17T16:47:49.953Z,1.70
2019-05-17T16:50:26.168Z,1.70
2019-05-17T16:53:16.639Z,2.00
2019-05-17T16:55:49.719Z,1.73
2019-05-17T16:58:43.964Z,1.53
2019-05-17T17:01:33.420Z,1.90
2019-05-17T17:04:23.153Z,2.00
2019-05-17T17:07:12.783Z,2.50
2019-05-17T17:10:02.414Z,2.10
2019-05-17T17:12:51.806Z,2.43
2019-05-17T17:15:22.320Z,3.13
2019-05-17T17:18:29.524Z,3.20
2019-05-17T17:21:18.921Z,2.43
2019-05-17T17:23:49.825Z,2.87
2019-05-17T17:26:39.137Z,2.50
2019-05-17T17:29:12.871Z,2.63
2019-05-17T17:32:02.186Z,2.47
2019-05-17T17:34:57.170Z,3.20
2019-05-17T17:37:30.796Z,2.83
2019-05-17T17:40:23.311Z,2.67
2019-05-17T17:43:15.702Z,2.80
2019-05-17T17:46:05.039Z,3.57
2019-05-17T17:48:56.107Z,2.70
2019-05-17T17:51:45.914Z,2.63
2019-05-17T17:54:35.219Z,2.50
2019-05-17T17:57:28.055Z,13.70
2019-05-17T18:00:17.912Z,3.83
2019-05-17T18:05:29.081Z,3.47
2019-05-17T18:08:40.179Z,3.30
2019-05-17T18:11:14.125Z,2.97
2019-05-17T18:14:13.210Z,2.93
2019-05-17T18:16:38.539Z,2.93
2019-05-17T18:19:15.047Z,3.03
2019-05-17T18:21:49.119Z,2.50
2019-05-17T18:24:23.052Z,2.90
2019-05-17T18:26:58.832Z,2.83
2019-05-17T18:29:58.331Z,2.93
2019-05-17T18:32:36.064Z,3.17
2019-05-17T18:35:40.511Z,2.60
2019-05-17T18:38:40.996Z,3.00
2019-05-17T18:41:11.254Z,3.33
2019-05-17T18:44:02.655Z,3.27
2019-05-17T18:46:54.905Z,3.97
2019-05-17T18:52:29.212Z,3.87
2019-05-17T18:54:59.492Z,4.07
2019-05-17T18:57:48.812Z,3.37
2019-05-17T19:00:19.317Z,3.00
2019-05-17T19:03:02.029Z,3.63
2019-05-17T19:05:51.336Z,3.53
2019-05-17T19:08:24.099Z,3.00
2019-05-17T19:14:17.080Z,3.90
2019-05-17T19:17:26.601Z,3.27
2019-05-17T19:20:20.768Z,3.03
2019-05-17T19:23:10.301Z,2.43
2019-05-17T19:25:42.480Z,3.00
2019-05-17T19:31:24.173Z,3.33
2019-05-17T19:33:54.456Z,3.63
2019-05-17T19:39:52.086Z,3.30
2019-05-17T19:42:41.720Z,3.17
2019-05-17T19:45:16.463Z,2.80
2019-05-17T19:51:16.016Z,2.90
2019-05-17T19:54:27.557Z,2.80
2019-05-17T19:57:03.793Z,2.83
2019-05-17T19:59:53.087Z,3.27
2019-05-17T20:02:37.810Z,4.27
2019-05-17T20:05:09.994Z,4.77
2019-05-17T20:10:51.967Z,5.33
2019-05-17T20:13:36.828Z,5.30
2019-05-17T20:16:29.760Z,5.30
2019-05-17T20:19:01.073Z,4.90
2019-05-17T20:22:27.080Z,4.63
2019-05-17T20:24:44.928Z,4.63
2019-05-17T20:27:36.993Z,4.63
2019-05-17T20:30:32.757Z,3.97
2019-05-17T20:33:03.503Z,4.67
2019-05-17T20:35:52.956Z,4.20
2019-05-17T20:38:23.311Z,4.47
2019-05-17T20:40:56.155Z,4.53
2019-05-17T20:43:33.826Z,6.47
2019-05-17T20:46:07.415Z,5.10
2019-05-17T20:48:56.989Z,3.43
2019-05-17T20:51:32.819Z,3.90
2019-05-17T20:54:03.568Z,4.13
2019-05-17T20:56:34.383Z,4.30
2019-05-17T20:59:07.542Z,4.30
2019-05-17T21:01:57.553Z,3.90
2019-05-17T21:04:29.908Z,3.50
2019-05-17T21:07:00.204Z,4.40
2019-05-17T21:09:30.580Z,5.40
2019-05-17T21:12:01.215Z,5.20
2019-05-17T21:21:05.846Z,5.37
2019-05-17T21:23:55.455Z,5.57
2019-05-17T21:29:38.563Z,5.53
2019-05-17T21:32:14.090Z,5.67
2019-05-17T21:34:56.173Z,5.70
2019-05-17T21:37:28.591Z,4.77
2019-05-17T21:40:04.944Z,4.93
2019-05-17T21:42:35.263Z,5.53
2019-05-17T21:45:07.384Z,5.53
2019-05-17T21:47:45.181Z,5.30
2019-05-17T21:50:36.604Z,5.63
2019-05-17T21:53:06.939Z,4.73
2019-05-17T21:55:56.250Z,4.83
2019-05-17T22:01:59.107Z,4.80
2019-05-17T22:04:48.386Z,5.93
2019-05-17T22:08:05.640Z,5.60
2019-05-17T22:11:16.856Z,4.30
2019-05-17T22:14:06.200Z,4.83
2019-05-17T22:16:36.949Z,4.30
2019-05-17T22:19:07.606Z,4.50
2019-05-17T22:21:57.218Z,5.00
2019-05-17T22:24:50.549Z,4.37
2019-05-17T22:27:58.711Z,4.47
2019-05-17T22:30:48.314Z,5.33
2019-05-17T22:33:18.990Z,5.23
2019-05-17T22:38:55.273Z,5.00
2019-05-17T22:42:16.485Z,4.70
2019-05-17T22:44:50.699Z,4.90
2019-05-17T22:47:23.038Z,5.10
2019-05-17T22:50:12.482Z,4.40
2019-05-17T22:52:44.824Z,5.03
2019-05-17T22:55:15.220Z,4.13
2019-05-17T22:58:06.016Z,4.47
2019-05-17T23:00:55.260Z,4.37
2019-05-17T23:09:39.817Z,4.00
2019-05-17T23:12:47.981Z,4.43
2019-05-17T23:15:56.386Z,4.17
2019-05-17T23:19:23.796Z,3.63
2019-05-17T23:28:00.993Z,3.50
2019-05-17T23:33:39.935Z,4.80
2019-05-17T23:36:30.036Z,4.60
2019-05-17T23:39:09.792Z,5.03
2019-05-17T23:41:40.460Z,5.30
2019-05-17T23:44:13.063Z,5.03
2019-05-17T23:47:31.250Z,5.13
2019-05-17T23:49:35.106Z,5.27
2019-05-17T23:52:25.225Z,4.83
2019-05-17T23:54:57.535Z,5.00
2019-05-17T23:57:53.215Z,5.00
